createdAt,value
2018-09-10T00:02:05.660Z,99.90
2018-09-10T00:04:32.891Z,99.90
2018-09-10T00:07:00.104Z,99.90
2018-09-10T00:09:27.327Z,99.90
2018-09-10T00:11:54.544Z,99.90
2018-09-10T00:14:21.761Z,99.90
2018-09-10T00:16:49.166Z,99.90
2018-09-10T00:19:16.407Z,99.90
2018-09-10T00:21:43.760Z,99.90
2018-09-10T00:24:10.992Z,99.90
2018-09-10T00:26:38.237Z,99.90
2018-09-10T00:29:05.456Z,99.90
2018-09-10T00:31:32.685Z,99.90
2018-09-10T00:34:00.408Z,99.90
2018-09-10T00:36:27.630Z,99.90
2018-09-10T00:38:54.851Z,99.90
2018-09-10T00:41:22.077Z,99.90
2018-09-10T00:43:49.304Z,99.90
2018-09-10T00:46:16.536Z,99.90
2018-09-10T00:48:43.745Z,99.90
2018-09-10T00:51:10.988Z,99.90
2018-09-10T00:53:38.208Z,99.90
2018-09-10T00:56:05.435Z,99.90
2018-09-10T00:58:32.653Z,99.90
2018-09-10T01:00:59.883Z,99.90
2018-09-10T01:03:27.105Z,99.90
2018-09-10T01:05:54.327Z,99.90
2018-09-10T01:08:21.565Z,99.90
2018-09-10T01:10:48.792Z,99.90
2018-09-10T01:13:16.003Z,99.90
2018-09-10T01:15:43.416Z,99.90
2018-09-10T01:18:10.901Z,99.90
2018-09-10T01:20:38.123Z,99.90
2018-09-10T01:23:05.363Z,99.90
2018-09-10T01:25:32.613Z,99.90
2018-09-10T01:27:59.839Z,99.90
2018-09-10T01:30:27.075Z,99.90
2018-09-10T01:32:54.300Z,99.90
2018-09-10T01:35:21.549Z,99.90
2018-09-10T01:37:48.768Z,99.90
2018-09-10T01:40:15.960Z,99.90
2018-09-10T01:42:43.152Z,99.90
2018-09-10T01:45:10.380Z,99.90
2018-09-10T01:47:37.585Z,99.90
2018-09-10T01:50:04.808Z,99.90
2018-09-10T01:52:32.005Z,99.90
2018-09-10T01:54:59.188Z,99.90
2018-09-10T01:57:26.393Z,99.90
2018-09-10T01:59:53.582Z,99.90
2018-09-10T02:02:20.777Z,99.90
2018-09-10T02:04:48.003Z,99.90
2018-09-10T02:07:15.217Z,99.90
2018-09-10T02:09:42.404Z,99.90
2018-09-10T02:12:15.319Z,99.90
2018-09-10T02:14:42.516Z,99.90
2018-09-10T02:17:09.721Z,99.90
2018-09-10T02:19:36.884Z,99.90
2018-09-10T02:22:04.092Z,99.90
2018-09-10T02:24:31.279Z,99.90
2018-09-10T02:26:58.491Z,99.90
2018-09-10T02:29:25.665Z,99.90
2018-09-10T02:31:52.880Z,99.90
2018-09-10T02:34:20.080Z,99.90
2018-09-10T02:36:47.268Z,99.90
2018-09-10T02:39:14.463Z,99.90
2018-09-10T02:41:42.789Z,99.90
2018-09-10T02:44:10.781Z,99.90
2018-09-10T02:46:38.148Z,99.90
2018-09-10T02:49:05.417Z,99.90
2018-09-10T02:51:32.597Z,99.90
2018-09-10T02:53:59.797Z,99.90
2018-09-10T02:56:26.991Z,99.90
2018-09-10T02:58:54.184Z,99.90
2018-09-10T03:01:21.364Z,99.90
2018-09-10T03:03:48.567Z,99.90
2018-09-10T03:06:15.747Z,99.90
2018-09-10T03:08:42.936Z,99.90
2018-09-10T03:11:10.124Z,99.90
2018-09-10T03:13:37.303Z,99.90
2018-09-10T03:16:04.496Z,99.90
2018-09-10T03:18:31.691Z,99.90
2018-09-10T03:20:58.868Z,99.90
2018-09-10T03:23:26.059Z,99.90
2018-09-10T03:25:53.236Z,99.90
2018-09-10T03:28:20.416Z,99.90
2018-09-10T03:30:47.648Z,99.90
2018-09-10T03:33:14.871Z,99.90
2018-09-10T03:35:42.068Z,99.90
2018-09-10T03:38:12.134Z,99.90
2018-09-10T03:40:39.345Z,99.90
2018-09-10T03:43:06.576Z,99.90
2018-09-10T03:45:33.761Z,99.90
2018-09-10T03:48:00.940Z,99.90
2018-09-10T03:50:28.136Z,99.90
2018-09-10T03:52:55.321Z,99.90
2018-09-10T03:55:22.516Z,99.90
2018-09-10T03:57:49.696Z,99.90
2018-09-10T04:00:17.092Z,99.90
2018-09-10T04:02:44.285Z,99.90
2018-09-10T04:05:11.488Z,99.90
2018-09-10T04:07:38.660Z,99.90
2018-09-10T04:10:05.899Z,99.90
2018-09-10T04:12:33.072Z,99.90
2018-09-10T04:15:00.296Z,99.90
2018-09-10T04:17:27.480Z,99.90
2018-09-10T04:20:11.343Z,99.90
2018-09-10T04:22:39.996Z,99.90
2018-09-10T04:25:07.228Z,99.90
2018-09-10T04:27:35.247Z,99.90
2018-09-10T04:30:02.495Z,99.90
2018-09-10T04:32:29.679Z,99.90
2018-09-10T04:34:56.864Z,99.90
2018-09-10T04:37:24.040Z,99.90
2018-09-10T04:39:51.216Z,99.90
2018-09-10T04:42:18.442Z,99.90
2018-09-10T04:44:45.537Z,99.90
2018-09-10T04:47:12.708Z,99.90
2018-09-10T04:49:39.921Z,99.90
2018-09-10T04:52:07.032Z,99.90
2018-09-10T04:54:34.208Z,99.90
2018-09-10T04:57:01.401Z,99.90
2018-09-10T04:59:28.573Z,99.90
2018-09-10T05:01:55.736Z,99.90
2018-09-10T05:04:22.916Z,99.90
2018-09-10T05:06:50.163Z,99.90
2018-09-10T05:09:17.321Z,99.90
2018-09-10T05:11:44.484Z,99.90
2018-09-10T05:14:11.644Z,99.90
2018-09-10T05:16:38.809Z,99.90
2018-09-10T05:19:05.983Z,99.90
2018-09-10T05:21:33.156Z,99.90
2018-09-10T05:24:00.326Z,99.90
2018-09-10T05:26:27.488Z,99.90
2018-09-10T05:28:54.642Z,99.90
2018-09-10T05:31:21.812Z,99.90
2018-09-10T05:33:48.982Z,99.90
2018-09-10T05:36:16.171Z,99.90
2018-09-10T05:38:43.344Z,99.90
2018-09-10T05:41:10.532Z,99.90
2018-09-10T05:43:37.719Z,99.90
2018-09-10T05:46:04.913Z,99.90
2018-09-10T05:48:32.124Z,99.90
2018-09-10T05:50:59.304Z,99.90
2018-09-10T05:53:26.493Z,99.90
2018-09-10T05:55:53.823Z,99.90
2018-09-10T05:58:21.003Z,99.90
2018-09-10T06:00:48.216Z,99.90
2018-09-10T06:03:15.404Z,99.90
2018-09-10T06:05:42.585Z,99.90
2018-09-10T06:08:09.788Z,99.90
2018-09-10T06:10:37.005Z,99.90
2018-09-10T06:13:04.351Z,99.90
2018-09-10T06:15:31.560Z,99.90
2018-09-10T06:17:58.776Z,99.90
2018-09-10T06:20:25.967Z,99.90
2018-09-10T06:22:53.161Z,99.90
2018-09-10T06:25:20.368Z,99.90
2018-09-10T06:27:47.558Z,99.90
2018-09-10T06:30:14.921Z,99.90
2018-09-10T06:32:42.089Z,99.90
2018-09-10T06:35:09.289Z,99.70
2018-09-10T06:37:36.516Z,97.40
2018-09-10T06:40:03.744Z,96.90
2018-09-10T06:42:30.938Z,94.60
2018-09-10T06:44:58.127Z,93.40
2018-09-10T06:47:25.313Z,91.60
2018-09-10T06:49:52.845Z,91.20
2018-09-10T06:52:20.037Z,91.00
2018-09-10T06:54:47.231Z,89.20
2018-09-10T06:57:14.429Z,88.10
2018-09-10T06:59:41.629Z,89.30
2018-09-10T07:02:08.820Z,83.80
2018-09-10T07:04:36.020Z,84.00
2018-09-10T07:07:03.355Z,82.90
2018-09-10T07:09:30.546Z,81.60
2018-09-10T07:11:57.741Z,83.40
2018-09-10T07:14:24.956Z,80.20
2018-09-10T07:16:52.135Z,81.00
2018-09-10T07:19:19.359Z,81.00
2018-09-10T07:21:46.553Z,81.30
2018-09-10T07:24:13.804Z,82.50
2018-09-10T07:26:40.992Z,80.60
2018-09-10T07:29:08.188Z,78.40
2018-09-10T07:31:35.370Z,78.90
2018-09-10T07:34:02.567Z,79.10
2018-09-10T07:36:29.753Z,77.20
2018-09-10T07:38:56.944Z,77.00
2018-09-10T07:41:24.136Z,78.20
2018-09-10T07:43:51.431Z,76.80
2018-09-10T07:46:18.749Z,79.80
2018-09-10T07:48:45.948Z,80.10
2018-09-10T07:51:13.137Z,77.90
2018-09-10T07:53:40.323Z,76.90
2018-09-10T07:56:07.511Z,80.00
2018-09-10T07:58:35.028Z,78.50
2018-09-10T08:01:02.224Z,76.40
2018-09-10T08:03:29.412Z,77.30
2018-09-10T08:05:56.599Z,84.00
2018-09-10T08:08:23.780Z,74.50
2018-09-10T08:10:50.976Z,74.90
2018-09-10T08:13:18.159Z,70.10
2018-09-10T08:15:45.351Z,70.10
2018-09-10T08:18:12.556Z,74.40
2018-09-10T08:20:39.736Z,70.00
2018-09-10T08:23:06.945Z,70.60
2018-09-10T08:25:34.143Z,67.40
2018-09-10T08:28:01.363Z,68.30
2018-09-10T08:30:28.614Z,65.80
2018-09-10T08:32:55.760Z,66.30
2018-09-10T08:35:22.996Z,66.40
2018-09-10T08:37:50.218Z,65.00
2018-09-10T08:40:17.472Z,65.90
2018-09-10T08:42:44.702Z,66.20
2018-09-10T08:45:11.912Z,68.50
2018-09-10T08:47:39.082Z,66.90
2018-09-10T08:50:07.335Z,72.10
2018-09-10T08:52:34.552Z,64.80
2018-09-10T08:55:02.061Z,62.90
2018-09-10T08:57:29.024Z,67.80
2018-09-10T08:59:56.196Z,67.30
2018-09-10T09:02:23.420Z,67.30
2018-09-10T09:04:50.597Z,63.10
2018-09-10T09:07:17.839Z,67.10
2018-09-10T09:09:45.031Z,65.00
2018-09-10T09:12:12.244Z,64.30
2018-09-10T09:14:39.436Z,62.70
2018-09-10T09:17:06.631Z,65.90
2018-09-10T09:19:33.856Z,65.40
2018-09-10T09:22:01.056Z,68.70
2018-09-10T09:24:28.243Z,63.50
2018-09-10T09:26:55.424Z,62.90
2018-09-10T09:29:22.600Z,64.00
2018-09-10T09:31:49.797Z,65.20
2018-09-10T09:34:16.975Z,60.00
2018-09-10T09:36:49.869Z,60.80
2018-09-10T09:39:22.797Z,60.00
2018-09-10T09:42:57.559Z,57.30
2018-09-10T09:45:30.500Z,59.60
2018-09-10T09:47:57.691Z,56.20
2018-09-10T09:50:24.879Z,54.80
2018-09-10T09:52:52.061Z,56.80
2018-09-10T09:55:19.248Z,53.50
2018-09-10T09:57:46.451Z,57.10
2018-09-10T10:00:14.647Z,54.80
2018-09-10T10:02:47.672Z,54.40
2018-09-10T10:05:14.853Z,57.40
2018-09-10T10:07:42.046Z,54.10
2018-09-10T10:10:09.238Z,52.20
2018-09-10T10:12:36.425Z,53.40
2018-09-10T10:15:03.655Z,54.20
2018-09-10T10:17:30.836Z,55.90
2018-09-10T10:19:58.012Z,55.90
2018-09-10T10:22:25.471Z,56.70
2018-09-10T10:24:52.791Z,56.70
2018-09-10T10:27:20.041Z,57.20
2018-09-10T10:29:47.224Z,54.40
2018-09-10T10:32:14.431Z,55.30
2018-09-10T10:34:41.609Z,54.50
2018-09-10T10:37:08.787Z,56.20
2018-09-10T10:39:35.948Z,57.80
2018-09-10T10:42:03.111Z,58.10
2018-09-10T10:44:30.311Z,57.10
2018-09-10T10:46:57.463Z,58.50
2018-09-10T10:49:24.627Z,57.50
2018-09-10T10:51:51.835Z,54.70
2018-09-10T10:54:19.004Z,54.80
2018-09-10T10:56:46.201Z,55.20
2018-09-10T10:59:13.364Z,54.20
2018-09-10T11:01:40.520Z,54.90
2018-09-10T11:04:07.780Z,54.40
2018-09-10T11:06:34.951Z,53.90
2018-09-10T11:09:02.192Z,53.50
2018-09-10T11:11:29.405Z,54.70
2018-09-10T11:13:56.583Z,52.10
2018-09-10T11:16:23.744Z,53.60
2018-09-10T11:18:50.920Z,53.80
2018-09-10T11:21:18.109Z,53.90
2018-09-10T11:23:45.280Z,52.60
2018-09-10T11:26:12.436Z,52.50
2018-09-10T11:28:39.609Z,54.10
2018-09-10T11:31:07.136Z,53.00
2018-09-10T11:33:34.300Z,51.80
2018-09-10T11:36:01.462Z,52.30
2018-09-10T11:38:28.664Z,54.50
2018-09-10T11:40:55.828Z,55.60
2018-09-10T11:43:23.019Z,57.50
2018-09-10T11:45:50.443Z,55.80
2018-09-10T11:48:17.596Z,55.20
2018-09-10T11:50:44.764Z,53.90
2018-09-10T11:53:11.958Z,54.60
2018-09-10T11:55:39.139Z,54.60
2018-09-10T11:58:06.308Z,55.60
2018-09-10T12:00:33.607Z,55.20
2018-09-10T12:03:00.777Z,54.00
2018-09-10T12:05:27.948Z,57.60
2018-09-10T12:07:55.112Z,53.90
2018-09-10T12:10:22.286Z,53.60
2018-09-10T12:12:49.474Z,54.90
2018-09-10T12:15:16.795Z,55.90
2018-09-10T12:17:44.003Z,55.10
2018-09-10T12:20:11.191Z,54.80
2018-09-10T12:22:38.377Z,56.70
2018-09-10T12:25:05.665Z,56.60
2018-09-10T12:27:32.864Z,56.80
2018-09-10T12:30:00.151Z,58.40
2018-09-10T12:32:27.371Z,55.30
2018-09-10T12:34:54.493Z,57.90
2018-09-10T12:37:21.691Z,57.50
2018-09-10T12:39:48.952Z,56.00
2018-09-10T12:42:16.084Z,56.70
2018-09-10T12:44:43.260Z,55.40
2018-09-10T12:47:10.457Z,57.40
2018-09-10T12:49:37.665Z,57.50
2018-09-10T12:52:04.907Z,55.60
2018-09-10T12:54:32.106Z,54.50
2018-09-10T12:56:59.301Z,54.30
2018-09-10T12:59:26.536Z,54.40
2018-09-10T13:01:53.731Z,54.30
2018-09-10T13:04:20.956Z,56.10
2018-09-10T13:06:48.142Z,54.70
2018-09-10T13:09:15.333Z,54.80
2018-09-10T13:11:42.611Z,53.00
2018-09-10T13:14:09.801Z,55.40
2018-09-10T13:16:37.000Z,53.00
2018-09-10T13:19:04.312Z,53.10
2018-09-10T13:21:31.516Z,53.70
2018-09-10T13:23:58.703Z,53.80
2018-09-10T13:26:25.900Z,53.00
2018-09-10T13:28:53.208Z,53.00
2018-09-10T13:31:20.401Z,52.20
2018-09-10T13:33:47.584Z,52.60
2018-09-10T13:36:14.792Z,51.70
2018-09-10T13:38:41.951Z,50.00
2018-09-10T13:41:09.120Z,50.90
2018-09-10T13:43:36.324Z,50.20
2018-09-10T13:46:03.595Z,52.70
2018-09-10T13:48:30.776Z,52.90
2018-09-10T13:50:57.943Z,54.90
2018-09-10T13:53:25.209Z,52.70
2018-09-10T13:55:52.387Z,51.10
2018-09-10T13:58:19.600Z,51.50
2018-09-10T14:00:46.858Z,54.30
2018-09-10T14:03:14.033Z,51.90
2018-09-10T14:05:41.208Z,52.40
2018-09-10T14:08:08.367Z,52.40
2018-09-10T14:10:35.663Z,53.60
2018-09-10T14:13:02.803Z,51.60
2018-09-10T14:15:30.056Z,50.40
2018-09-10T14:17:57.450Z,50.20
2018-09-10T14:20:24.607Z,53.90
2018-09-10T14:22:51.949Z,51.00
2018-09-10T14:25:19.167Z,52.20
2018-09-10T14:27:46.472Z,51.80
2018-09-10T14:30:13.693Z,53.30
2018-09-10T14:32:40.865Z,54.20
2018-09-10T14:35:08.032Z,55.00
2018-09-10T14:37:35.420Z,55.40
2018-09-10T14:40:02.608Z,56.20
2018-09-10T14:42:29.776Z,55.00
2018-09-10T14:44:56.949Z,57.30
2018-09-10T14:47:24.119Z,55.00
2018-09-10T14:49:51.544Z,55.30
2018-09-10T14:52:18.725Z,54.40
2018-09-10T14:54:45.896Z,54.60
2018-09-10T14:57:13.077Z,53.10
2018-09-10T14:59:40.244Z,52.80
2018-09-10T15:02:07.428Z,53.80
2018-09-10T15:04:34.584Z,55.70
2018-09-10T15:07:01.771Z,56.00
2018-09-10T15:09:28.940Z,57.30
2018-09-10T15:11:56.177Z,56.80
2018-09-10T15:14:23.377Z,56.30
2018-09-10T15:16:50.482Z,55.90
2018-09-10T15:19:17.735Z,55.00
2018-09-10T15:21:45.050Z,55.20
2018-09-10T15:24:12.301Z,56.60
2018-09-10T15:26:39.493Z,55.90
2018-09-10T15:29:06.703Z,56.30
2018-09-10T15:31:34.131Z,56.30
2018-09-10T15:34:01.322Z,56.50
2018-09-10T15:36:28.528Z,56.30
2018-09-10T15:38:55.727Z,55.20
2018-09-10T15:41:22.944Z,54.10
2018-09-10T15:43:50.134Z,53.40
2018-09-10T15:46:17.341Z,53.70
2018-09-10T15:48:44.533Z,53.70
2018-09-10T15:51:11.725Z,52.80
2018-09-10T15:53:38.908Z,54.10
2018-09-10T15:56:06.112Z,53.80
2018-09-10T15:58:33.331Z,54.20
2018-09-10T16:01:00.508Z,53.50
2018-09-10T16:03:27.700Z,54.80
2018-09-10T16:05:54.892Z,56.30
2018-09-10T16:08:22.093Z,54.70
2018-09-10T16:10:49.460Z,55.20
2018-09-10T16:13:16.695Z,55.30
2018-09-10T16:15:43.941Z,55.60
2018-09-10T16:18:11.127Z,58.30
2018-09-10T16:20:38.329Z,57.60
2018-09-10T16:23:05.700Z,57.50
2018-09-10T16:25:32.903Z,57.00
2018-09-10T16:28:00.088Z,57.30
2018-09-10T16:30:27.278Z,58.40
2018-09-10T16:32:54.463Z,58.40
2018-09-10T16:35:21.660Z,58.30
2018-09-10T16:37:49.035Z,58.90
2018-09-10T16:40:16.258Z,60.00
2018-09-10T16:42:43.447Z,59.60
2018-09-10T16:45:10.828Z,59.40
2018-09-10T16:47:38.032Z,57.50
2018-09-10T16:50:05.251Z,58.30
2018-09-10T16:52:32.445Z,57.70
2018-09-10T16:54:59.669Z,57.60
2018-09-10T16:57:26.844Z,58.80
2018-09-10T16:59:54.059Z,58.90
2018-09-10T17:02:21.316Z,57.80
2018-09-10T17:04:48.514Z,58.20
2018-09-10T17:07:15.708Z,57.70
2018-09-10T17:09:42.932Z,56.80
2018-09-10T17:12:10.184Z,57.50
2018-09-10T17:14:37.338Z,57.10
2018-09-10T17:17:04.975Z,57.00
2018-09-10T17:19:32.551Z,57.10
2018-09-10T17:21:59.725Z,58.50
2018-09-10T17:24:26.911Z,58.20
2018-09-10T17:26:54.157Z,58.40
2018-09-10T17:29:21.344Z,58.70
2018-09-10T17:31:48.560Z,58.80
2018-09-10T17:34:15.812Z,58.40
2018-09-10T17:36:43.196Z,58.90
2018-09-10T17:39:10.392Z,58.40
2018-09-10T17:41:37.627Z,58.90
2018-09-10T17:44:04.827Z,58.70
2018-09-10T17:46:32.084Z,58.90
2018-09-10T17:48:59.364Z,59.30
2018-09-10T17:51:26.675Z,59.30
2018-09-10T17:53:54.105Z,59.60
2018-09-10T17:56:21.743Z,60.30
2018-09-10T17:58:49.099Z,60.50
2018-09-10T18:01:17.080Z,60.40
2018-09-10T18:03:44.424Z,60.80
2018-09-10T18:06:11.780Z,61.80
2018-09-10T18:08:39.541Z,62.30
2018-09-10T18:11:06.892Z,63.00
2018-09-10T18:13:34.249Z,63.40
2018-09-10T18:16:01.602Z,64.20
2018-09-10T18:18:28.971Z,64.40
2018-09-10T18:20:56.312Z,65.50
2018-09-10T18:23:23.670Z,65.20
2018-09-10T18:25:51.001Z,65.60
2018-09-10T18:28:18.372Z,65.90
2018-09-10T18:30:45.815Z,65.80
2018-09-10T18:33:13.683Z,65.70
2018-09-10T18:35:41.056Z,66.50
2018-09-10T18:38:08.405Z,66.70
2018-09-10T18:40:35.773Z,66.30
2018-09-10T18:43:02.984Z,66.60
2018-09-10T18:45:30.198Z,66.90
2018-09-10T18:47:58.700Z,66.70
2018-09-10T18:50:25.916Z,67.30
2018-09-10T18:52:53.109Z,68.30
2018-09-10T18:55:20.321Z,68.40
2018-09-10T18:57:47.524Z,67.80
2018-09-10T19:00:14.841Z,67.50
2018-09-10T19:02:42.037Z,68.20
2018-09-10T19:05:09.249Z,69.00
2018-09-10T19:07:36.448Z,67.50
2018-09-10T19:10:03.709Z,67.30
2018-09-10T19:12:30.919Z,67.80
2018-09-10T19:14:58.120Z,69.40
2018-09-10T19:17:25.547Z,70.00
2018-09-10T19:19:52.784Z,70.10
2018-09-10T19:22:20.090Z,70.60
2018-09-10T19:24:47.316Z,70.40
2018-09-10T19:27:14.552Z,70.30
2018-09-10T19:29:41.804Z,70.60
2018-09-10T19:32:09.009Z,70.80
2018-09-10T19:34:36.359Z,71.20
2018-09-10T19:37:03.585Z,70.40
2018-09-10T19:39:30.788Z,70.70
2018-09-10T19:41:57.997Z,70.70
2018-09-10T19:44:25.208Z,70.30
2018-09-10T19:46:52.424Z,70.60
2018-09-10T19:49:19.612Z,70.80
2018-09-10T19:51:46.794Z,72.00
2018-09-10T19:54:14.030Z,71.60
2018-09-10T19:56:41.215Z,72.00
2018-09-10T19:59:08.407Z,72.90
2018-09-10T20:01:35.603Z,72.80
2018-09-10T20:04:02.815Z,71.90
2018-09-10T20:06:30.028Z,71.70
2018-09-10T20:08:57.232Z,71.90
2018-09-10T20:11:24.423Z,72.60
2018-09-10T20:13:51.612Z,72.10
2018-09-10T20:16:18.845Z,71.90
2018-09-10T20:18:46.166Z,73.40
2018-09-10T20:21:13.665Z,72.50
2018-09-10T20:23:40.867Z,72.20
2018-09-10T20:26:08.129Z,73.00
2018-09-10T20:28:35.344Z,72.80
2018-09-10T20:31:03.024Z,72.60
2018-09-10T20:33:34.831Z,72.80
2018-09-10T20:36:02.033Z,74.50
2018-09-10T20:38:29.210Z,76.10
2018-09-10T20:40:56.380Z,73.90
2018-09-10T20:43:23.565Z,74.70
2018-09-10T20:45:50.775Z,73.50
2018-09-10T20:48:17.933Z,73.60
2018-09-10T20:50:45.116Z,74.40
2018-09-10T20:53:12.369Z,74.00
2018-09-10T20:55:39.544Z,73.50
2018-09-10T20:58:06.704Z,75.30
2018-09-10T21:00:33.900Z,73.80
2018-09-10T21:03:01.072Z,75.10
2018-09-10T21:05:28.244Z,74.30
2018-09-10T21:07:55.400Z,74.60
2018-09-10T21:10:22.591Z,74.80
2018-09-10T21:12:49.768Z,74.80
2018-09-10T21:15:17.064Z,74.40
2018-09-10T21:17:45.084Z,74.70
2018-09-10T21:20:12.256Z,75.50
2018-09-10T21:22:39.426Z,76.30
2018-09-10T21:25:06.624Z,76.70
2018-09-10T21:27:33.787Z,76.90
2018-09-10T21:30:00.952Z,77.60
2018-09-10T21:32:28.100Z,77.40
2018-09-10T21:34:55.260Z,76.90
2018-09-10T21:37:22.431Z,76.50
2018-09-10T21:39:49.615Z,76.30
2018-09-10T21:42:16.779Z,76.40
2018-09-10T21:44:44.032Z,76.60
2018-09-10T21:47:11.241Z,76.80
2018-09-10T21:49:38.378Z,77.10
2018-09-10T21:52:05.604Z,77.50
2018-09-10T21:54:32.781Z,77.80
2018-09-10T21:56:59.939Z,78.10
2018-09-10T21:59:27.103Z,78.20
2018-09-10T22:01:54.260Z,78.70
2018-09-10T22:04:21.440Z,79.10
2018-09-10T22:06:48.600Z,79.60
2018-09-10T22:09:15.775Z,80.40
2018-09-10T22:11:48.743Z,80.70
2018-09-10T22:14:15.920Z,81.30
2018-09-10T22:16:43.099Z,81.90
2018-09-10T22:19:10.269Z,82.10
2018-09-10T22:21:37.436Z,82.70
2018-09-10T22:24:04.811Z,83.00
2018-09-10T22:26:31.983Z,83.30
2018-09-10T22:28:59.139Z,83.80
2018-09-10T22:31:26.326Z,84.10
2018-09-10T22:33:53.472Z,84.50
2018-09-10T22:36:20.647Z,85.60
2018-09-10T22:38:47.820Z,85.80
2018-09-10T22:41:14.988Z,86.20
2018-09-10T22:43:42.164Z,86.70
2018-09-10T22:46:09.340Z,86.90
2018-09-10T22:48:36.508Z,87.80
2018-09-10T22:51:03.735Z,88.00
2018-09-10T22:53:30.881Z,88.30
2018-09-10T22:55:58.040Z,88.80
2018-09-10T22:58:25.192Z,89.50
2018-09-10T23:00:52.351Z,90.10
2018-09-10T23:03:19.503Z,90.40
2018-09-10T23:05:46.679Z,91.20
2018-09-10T23:08:13.835Z,91.30
2018-09-10T23:10:41.040Z,91.90
2018-09-10T23:13:08.220Z,92.40
2018-09-10T23:15:35.408Z,92.90
2018-09-10T23:18:02.579Z,93.40
2018-09-10T23:20:29.731Z,93.80
2018-09-10T23:22:56.900Z,94.50
2018-09-10T23:25:24.055Z,94.90
2018-09-10T23:27:51.218Z,95.40
2018-09-10T23:30:18.595Z,96.00
2018-09-10T23:32:45.769Z,96.70
2018-09-10T23:35:12.935Z,97.20
2018-09-10T23:37:40.145Z,97.70
2018-09-10T23:40:07.337Z,98.20
2018-09-10T23:42:34.543Z,98.80
2018-09-10T23:45:01.732Z,99.50
2018-09-10T23:47:28.929Z,99.90
2018-09-10T23:49:56.107Z,99.90
2018-09-10T23:52:23.320Z,99.90
2018-09-10T23:54:50.505Z,99.90
2018-09-10T23:57:17.705Z,99.90
2018-09-10T23:59:44.910Z,99.90
